Time;durP1;ratioP1;P1;durP2;ratioP2;P2;SDS_P1;SDS_P2;PMS_P1;PMS_P2;Temp;Humidity;BMP_temperature;BMP_pressure;BME280_temperature;BME280_humidity;BME280_pressure;Samples;Min_cycle;Max_cycle;Signal;HPM_P1;HPM_P2
2022/08/28 00:00:18;;;;;;;13.93;12.63;;;19.20;99.90;;;;;;5052562;28;20202;-49
2022/08/28 00:02:45;;;;;;;13.33;12.10;;;19.20;99.90;;;;;;5048108;28;20434;-53
2022/08/28 00:05:13;;;;;;;12.90;11.73;;;19.20;99.90;;;;;;5047071;28;20436;-52
2022/08/28 00:07:39;;;;;;;14.27;12.77;;;19.20;99.90;;;;;;5037920;28;20472;-53
2022/08/28 00:10:07;;;;;;;14.40;13.00;;;19.10;99.90;;;;;;5037944;28;20466;-50
2022/08/28 00:12:35;;;;;;;14.57;13.07;;;19.10;99.90;;;;;;5051973;28;20460;-50
2022/08/28 00:15:01;;;;;;;13.60;12.20;;;19.10;99.90;;;;;;5054733;28;21139;-49
2022/08/28 00:17:27;;;;;;;14.60;13.23;;;19.10;99.90;;;;;;5055731;28;20413;-49
2022/08/28 00:19:52;;;;;;;14.13;12.87;;;19.20;99.90;;;;;;5044132;28;20901;-51
2022/08/28 00:22:18;;;;;;;15.60;12.50;;;19.20;99.90;;;;;;5022569;28;20178;-53
2022/08/28 00:24:44;;;;;;;13.90;12.40;;;19.20;99.90;;;;;;5042525;28;20182;-51
2022/08/28 00:29:54;;;;;;;15.40;13.80;;;19.20;99.90;;;;;;5049447;28;20424;-50
2022/08/28 00:32:22;;;;;;;16.50;14.80;;;19.10;99.90;;;;;;5035976;28;21259;-52
2022/08/28 00:34:48;;;;;;;17.77;15.30;;;19.10;99.90;;;;;;5026897;28;20200;-52
2022/08/28 00:37:13;;;;;;;16.83;14.80;;;19.10;99.90;;;;;;5046799;28;20433;-49
2022/08/28 00:39:39;;;;;;;18.10;15.70;;;19.10;99.90;;;;;;5040390;28;20801;-50
2022/08/28 00:42:05;;;;;;;18.40;15.70;;;19.10;99.90;;;;;;5049653;28;20615;-51
2022/08/28 00:44:31;;;;;;;20.33;17.00;;;19.00;99.90;;;;;;5041431;28;20186;-48
2022/08/28 00:46:58;;;;;;;19.00;16.50;;;19.00;99.90;;;;;;5043709;28;20420;-49
2022/08/28 00:49:27;;;;;;;20.43;16.00;;;19.00;99.90;;;;;;5055493;28;20186;-51
2022/08/28 00:52:11;;;;;;;22.30;17.23;;;19.00;99.90;;;;;;5053083;28;20426;-51
2022/08/28 00:54:49;;;;;;;20.00;17.90;;;19.00;99.90;;;;;;5053441;28;20420;-48
2022/08/28 00:57:20;;;;;;;21.10;17.00;;;19.00;99.90;;;;;;5043872;28;20466;-50
2022/08/28 00:59:46;;;;;;;22.00;16.40;;;19.00;99.90;;;;;;5060317;28;20464;-53
2022/08/28 01:02:11;;;;;;;18.23;16.33;;;18.90;99.90;;;;;;5047023;28;20425;-52
2022/08/28 01:04:37;;;;;;;18.77;16.77;;;18.90;99.90;;;;;;5035418;28;20175;-52
2022/08/28 01:07:06;;;;;;;20.83;18.50;;;18.90;99.90;;;;;;5049160;28;20241;-49
2022/08/28 01:09:35;;;;;;;24.10;17.63;;;18.90;99.90;;;;;;5022879;28;20437;-50
2022/08/28 01:12:07;;;;;;;19.43;17.30;;;18.90;99.90;;;;;;5048020;28;20451;-49
2022/08/28 01:14:35;;;;;;;20.50;17.47;;;18.90;99.90;;;;;;5046859;28;21124;-51
2022/08/28 01:17:02;;;;;;;22.50;17.40;;;18.90;99.90;;;;;;5054238;28;20424;-50
2022/08/28 01:19:33;;;;;;;20.40;18.20;;;18.80;99.90;;;;;;5051723;28;20475;-49
2022/08/28 01:22:21;;;;;;;21.90;18.73;;;18.80;99.90;;;;;;5043662;28;20439;-50
2022/08/28 01:24:48;;;;;;;22.77;19.70;;;18.80;99.90;;;;;;5047630;28;20447;-52
2022/08/28 01:27:14;;;;;;;23.90;19.50;;;18.80;99.90;;;;;;5049606;28;20570;-51
2022/08/28 01:29:41;;;;;;;22.40;18.50;;;18.80;99.90;;;;;;5037785;28;20453;-50
2022/08/28 01:32:07;;;;;;;23.40;18.63;;;18.80;99.90;;;;;;5032083;28;20770;-52
2022/08/28 01:34:33;;;;;;;23.07;19.00;;;18.80;99.90;;;;;;5032210;28;20430;-49
2022/08/28 01:36:59;;;;;;;22.27;19.87;;;18.80;99.90;;;;;;5016513;28;20445;-49
2022/08/28 01:39:26;;;;;;;22.67;19.00;;;18.80;99.90;;;;;;5031911;28;21003;-49
2022/08/28 01:41:53;;;;;;;22.60;18.20;;;18.80;99.90;;;;;;5045638;28;20468;-47
2022/08/28 01:44:24;;;;;;;25.47;20.23;;;18.80;99.90;;;;;;5043146;28;20924;-48
2022/08/28 01:46:53;;;;;;;24.33;18.60;;;18.70;99.90;;;;;;5042981;28;20405;-50
2022/08/28 01:49:18;;;;;;;23.60;20.73;;;18.70;99.90;;;;;;5040035;28;20904;-50
2022/08/28 01:51:44;;;;;;;21.60;19.20;;;18.60;99.90;;;;;;5018568;28;20537;-52
2022/08/28 01:54:11;;;;;;;21.70;18.93;;;18.50;99.90;;;;;;5050573;28;20632;-51
2022/08/28 01:56:37;;;;;;;21.00;18.80;;;18.60;99.90;;;;;;5047279;28;20436;-51
2022/08/28 01:59:05;;;;;;;21.77;19.47;;;18.50;99.90;;;;;;5049914;28;20464;-50
2022/08/28 02:01:31;;;;;;;26.50;19.03;;;18.50;99.90;;;;;;5043137;28;20443;-50
2022/08/28 02:03:57;;;;;;;20.40;17.83;;;18.50;99.90;;;;;;5043487;28;20432;-50
2022/08/28 02:06:23;;;;;;;20.97;16.77;;;18.50;99.90;;;;;;5050401;28;20481;-50
2022/08/28 02:08:53;;;;;;;19.87;17.77;;;18.40;99.90;;;;;;5048808;28;20216;-51
2022/08/28 02:11:20;;;;;;;21.17;18.30;;;18.40;99.90;;;;;;5044005;28;20607;-51
2022/08/28 02:13:45;;;;;;;20.97;18.80;;;18.40;99.90;;;;;;5048951;28;20451;-53
2022/08/28 02:16:11;;;;;;;22.77;19.20;;;18.40;99.90;;;;;;5039197;28;20498;-48
2022/08/28 02:18:37;;;;;;;24.50;19.90;;;18.30;99.90;;;;;;5047308;28;20257;-48
2022/08/28 02:21:04;;;;;;;23.17;19.57;;;18.30;99.90;;;;;;5049319;28;20557;-49
2022/08/28 02:23:29;;;;;;;27.40;20.80;;;18.30;99.90;;;;;;5045646;28;20447;-50
2022/08/28 02:25:55;;;;;;;25.83;22.13;;;18.30;99.90;;;;;;5045681;28;21257;-48
2022/08/28 02:28:20;;;;;;;25.17;21.77;;;18.40;99.90;;;;;;5046629;28;20191;-49
2022/08/28 02:30:46;;;;;;;28.83;22.50;;;18.40;99.90;;;;;;5035212;28;20247;-51
2022/08/28 02:33:11;;;;;;;29.07;24.00;;;18.30;99.90;;;;;;5050033;28;20182;-52
2022/08/28 02:35:39;;;;;;;27.83;22.57;;;18.30;99.90;;;;;;5048841;28;20937;-49
2022/08/28 02:38:04;;;;;;;29.33;25.07;;;18.30;99.90;;;;;;5040425;28;20197;-51
2022/08/28 02:40:30;;;;;;;30.37;24.43;;;18.40;99.90;;;;;;5048014;28;20460;-50
2022/08/28 02:42:56;;;;;;;28.23;23.83;;;18.30;99.90;;;;;;5048824;28;20828;-51
2022/08/28 02:45:21;;;;;;;28.37;22.63;;;18.30;99.90;;;;;;5046403;28;20644;-51
2022/08/28 02:47:50;;;;;;;32.57;25.13;;;18.30;99.90;;;;;;5044560;28;20987;-51
2022/08/28 02:50:18;;;;;;;34.10;22.60;;;18.30;99.90;;;;;;5049375;28;20272;-50
2022/08/28 02:52:45;;;;;;;27.80;23.53;;;18.30;99.90;;;;;;5048685;28;20448;-51
2022/08/28 02:55:12;;;;;;;28.97;23.43;;;18.30;99.90;;;;;;5049007;28;20447;-51
2022/08/28 02:57:38;;;;;;;33.50;24.03;;;18.30;99.90;;;;;;5043560;28;20455;-50
2022/08/28 03:00:13;;;;;;;33.50;23.73;;;18.30;99.90;;;;;;5014804;28;20485;-53
2022/08/28 03:02:40;;;;;;;35.13;25.90;;;18.40;99.90;;;;;;5050281;28;20419;-48
2022/08/28 03:05:07;;;;;;;30.40;24.27;;;18.40;99.90;;;;;;5039173;28;20791;-53
2022/08/28 03:07:32;;;;;;;32.00;25.57;;;18.30;99.90;;;;;;5034491;28;20500;-52
2022/08/28 03:09:58;;;;;;;33.00;26.20;;;18.40;99.90;;;;;;5042306;28;20467;-50
2022/08/28 03:12:24;;;;;;;33.23;25.10;;;18.40;99.90;;;;;;5035162;28;20187;-47
2022/08/28 03:14:50;;;;;;;34.17;25.53;;;18.30;99.90;;;;;;5030125;28;20187;-53
2022/08/28 03:17:17;;;;;;;35.20;25.93;;;18.20;99.90;;;;;;5033204;28;20190;-53
2022/08/28 03:19:42;;;;;;;32.97;25.57;;;18.30;99.90;;;;;;5042437;28;20464;-50
2022/08/28 03:22:08;;;;;;;34.70;26.33;;;18.30;99.90;;;;;;5043596;28;20437;-50
2022/08/28 03:24:33;;;;;;;32.80;25.43;;;18.30;99.90;;;;;;5041444;28;20186;-51
2022/08/28 03:27:00;;;;;;;33.00;26.20;;;18.30;99.90;;;;;;5043758;28;20186;-47
2022/08/28 03:29:26;;;;;;;35.33;26.00;;;18.20;99.90;;;;;;5045465;28;20246;-50
2022/08/28 03:31:52;;;;;;;33.47;26.83;;;18.20;99.90;;;;;;5036123;28;20417;-48
2022/08/28 03:34:18;;;;;;;33.43;26.43;;;18.20;99.90;;;;;;5046185;28;20441;-50
2022/08/28 03:36:43;;;;;;;35.53;26.80;;;18.30;99.90;;;;;;5030364;28;20202;-53
2022/08/28 03:39:09;;;;;;;33.77;25.93;;;18.30;99.90;;;;;;5030957;28;20859;-48
2022/08/28 03:41:35;;;;;;;33.33;26.80;;;18.30;99.90;;;;;;5029740;28;20220;-52
2022/08/28 03:44:02;;;;;;;33.30;26.50;;;18.20;99.90;;;;;;5044150;28;20198;-51
2022/08/28 03:46:31;;;;;;;35.90;27.33;;;18.20;99.90;;;;;;5039237;28;20474;-50
2022/08/28 03:48:58;;;;;;;27.60;24.30;;;18.20;99.90;;;;;;5044554;28;20929;-48
2022/08/28 03:51:27;;;;;;;32.93;25.67;;;18.20;99.90;;;;;;5033553;28;20447;-52
2022/08/28 03:53:53;;;;;;;31.87;25.30;;;18.20;99.90;;;;;;5049249;28;20914;-52
2022/08/28 03:56:22;;;;;;;33.40;23.70;;;18.10;99.90;;;;;;5040827;28;20421;-52
2022/08/28 03:58:50;;;;;;;29.73;23.70;;;18.10;99.90;;;;;;5041926;28;20467;-52
2022/08/28 04:01:17;;;;;;;28.77;22.23;;;18.10;99.90;;;;;;5046993;28;20447;-51
2022/08/28 04:03:43;;;;;;;25.90;21.73;;;18.10;99.90;;;;;;5012709;28;20430;-49
2022/08/28 04:06:09;;;;;;;27.10;20.63;;;18.10;99.90;;;;;;5032288;28;21030;-50
2022/08/28 04:08:35;;;;;;;24.70;19.93;;;18.00;99.90;;;;;;5040275;28;20452;-51
2022/08/28 04:11:01;;;;;;;22.20;19.90;;;18.00;99.90;;;;;;5052046;28;20448;-50
2022/08/28 04:13:27;;;;;;;24.53;18.57;;;18.00;99.90;;;;;;5047559;28;20443;-54
2022/08/28 04:16:01;;;;;;;21.80;19.40;;;17.90;99.90;;;;;;5043636;28;20199;-49
2022/08/28 04:18:29;;;;;;;23.50;17.87;;;17.80;99.90;;;;;;5027505;28;20443;-49
2022/08/28 04:21:04;;;;;;;22.80;18.20;;;17.80;99.90;;;;;;5039696;28;20433;-49
2022/08/28 04:23:30;;;;;;;22.23;17.90;;;17.80;99.90;;;;;;5029649;28;20409;-52
2022/08/28 04:25:56;;;;;;;21.47;17.50;;;17.80;99.90;;;;;;5029864;28;20428;-54
2022/08/28 04:28:23;;;;;;;19.23;16.90;;;17.80;99.90;;;;;;5042647;28;20453;-47
2022/08/28 04:30:54;;;;;;;20.43;17.77;;;17.70;99.90;;;;;;5049374;28;20162;-52
2022/08/28 04:33:20;;;;;;;23.07;17.90;;;17.70;99.90;;;;;;5044362;28;20474;-51
2022/08/28 04:35:46;;;;;;;21.00;18.20;;;17.70;99.90;;;;;;5049277;28;20451;-48
2022/08/28 04:38:12;;;;;;;21.90;18.27;;;17.70;99.90;;;;;;5030294;28;20432;-52
2022/08/28 04:40:39;;;;;;;21.17;18.87;;;17.70;99.90;;;;;;5029253;28;20265;-47
2022/08/28 04:43:05;;;;;;;23.37;18.80;;;17.70;99.90;;;;;;5029706;28;20179;-49
2022/08/28 04:45:31;;;;;;;24.43;18.10;;;17.70;99.90;;;;;;5036728;28;20511;-48
2022/08/28 04:47:57;;;;;;;21.77;19.30;;;17.70;99.90;;;;;;5048539;28;20466;-49
2022/08/28 04:50:22;;;;;;;24.53;19.93;;;17.80;99.90;;;;;;5026425;28;21082;-51
2022/08/28 04:52:49;;;;;;;23.80;19.93;;;17.80;99.90;;;;;;5040195;28;20190;-53
2022/08/28 04:55:16;;;;;;;24.43;19.13;;;17.70;99.90;;;;;;5040508;28;20240;-51
2022/08/28 04:57:41;;;;;;;26.27;20.93;;;17.80;99.90;;;;;;5022385;28;20427;-52
2022/08/28 05:00:08;;;;;;;22.67;20.27;;;17.80;99.90;;;;;;5041261;28;20468;-51
2022/08/28 05:02:34;;;;;;;25.07;20.17;;;17.80;99.90;;;;;;5043521;28;20374;-50
2022/08/28 05:05:01;;;;;;;22.87;20.40;;;17.90;99.90;;;;;;5041233;28;20446;-51
2022/08/28 05:07:26;;;;;;;23.30;19.27;;;17.90;99.90;;;;;;5042564;28;20587;-50
2022/08/28 05:09:53;;;;;;;25.83;21.13;;;17.80;99.90;;;;;;5042499;28;21140;-53
2022/08/28 05:12:19;;;;;;;24.67;19.83;;;17.80;99.90;;;;;;5043015;28;20273;-50
2022/08/28 05:14:44;;;;;;;21.60;18.03;;;17.80;99.90;;;;;;5042020;28;20589;-51
2022/08/28 05:17:15;;;;;;;23.90;18.90;;;17.80;99.90;;;;;;5039203;28;20799;-50
2022/08/28 05:19:42;;;;;;;22.50;18.30;;;17.80;99.90;;;;;;5042226;28;20209;-52
2022/08/28 05:22:08;;;;;;;20.33;17.50;;;17.70;99.90;;;;;;5041818;28;20428;-49
2022/08/28 05:24:36;;;;;;;23.40;17.90;;;17.70;99.90;;;;;;5041227;28;20501;-50
2022/08/28 05:27:02;;;;;;;23.90;17.60;;;17.70;99.90;;;;;;5045416;28;20459;-47
2022/08/28 05:29:27;;;;;;;19.40;15.87;;;17.80;99.90;;;;;;5042723;28;20445;-48
2022/08/28 05:31:53;;;;;;;21.30;15.60;;;17.80;99.90;;;;;;5046583;28;20213;-51
2022/08/28 05:34:19;;;;;;;19.67;15.30;;;17.70;99.90;;;;;;5035991;28;20187;-52
2022/08/28 05:36:45;;;;;;;17.27;14.37;;;17.70;99.90;;;;;;5046113;28;20439;-48
2022/08/28 05:39:12;;;;;;;15.40;13.07;;;17.70;99.90;;;;;;5046043;28;20479;-50
2022/08/28 05:41:40;;;;;;;15.27;12.30;;;17.60;99.90;;;;;;5039976;28;20438;-54
2022/08/28 05:44:09;;;;;;;14.23;12.07;;;17.50;99.90;;;;;;5038382;28;20454;-53
2022/08/28 05:46:38;;;;;;;16.03;11.90;;;17.50;99.90;;;;;;5052614;28;20435;-50
2022/08/28 05:49:04;;;;;;;11.97;10.40;;;17.40;99.90;;;;;;5046691;28;21014;-50
2022/08/28 05:51:30;;;;;;;14.40;10.37;;;17.30;99.90;;;;;;5050234;28;20417;-49
2022/08/28 05:53:57;;;;;;;14.50;11.20;;;17.30;99.90;;;;;;5046053;28;21074;-47
2022/08/28 05:56:26;;;;;;;17.87;11.03;;;17.20;99.90;;;;;;5035967;28;20641;-49
2022/08/28 05:58:51;;;;;;;13.20;11.40;;;17.20;99.90;;;;;;5026344;28;20515;-52
2022/08/28 06:01:27;;;;;;;12.23;10.93;;;17.20;99.90;;;;;;5046688;28;20529;-48
2022/08/28 06:03:56;;;;;;;17.07;12.10;;;17.10;99.90;;;;;;5042626;28;21023;-50
2022/08/28 06:06:23;;;;;;;19.07;11.03;;;17.20;99.90;;;;;;5045612;28;20579;-47
2022/08/28 06:09:00;;;;;;;13.97;12.50;;;17.20;99.90;;;;;;5049006;28;20439;-47
2022/08/28 06:11:27;;;;;;;16.30;10.23;;;17.20;99.90;;;;;;5049742;28;20427;-46
2022/08/28 06:13:53;;;;;;;16.13;10.60;;;17.10;99.90;;;;;;5032790;28;20421;-49
2022/08/28 06:16:19;;;;;;;16.23;10.60;;;17.00;99.90;;;;;;5030520;28;20432;-52
2022/08/28 06:18:45;;;;;;;11.43;10.20;;;17.00;99.90;;;;;;5034279;28;20213;-48
2022/08/28 06:21:12;;;;;;;15.20;10.67;;;17.10;99.90;;;;;;5041954;28;21097;-48
2022/08/28 06:23:37;;;;;;;16.73;10.13;;;17.10;99.90;;;;;;5034146;28;20425;-51
2022/08/28 06:26:05;;;;;;;17.73;9.93;;;17.20;99.90;;;;;;5048399;28;20442;-48
2022/08/28 06:28:31;;;;;;;11.37;9.57;;;17.10;99.90;;;;;;5047997;28;20629;-49
2022/08/28 06:31:00;;;;;;;13.03;9.50;;;17.10;99.90;;;;;;5046769;28;20436;-51
2022/08/28 06:33:25;;;;;;;12.27;10.00;;;17.20;99.90;;;;;;5038195;28;20431;-49
2022/08/28 06:35:53;;;;;;;12.20;9.10;;;17.20;99.90;;;;;;5028358;28;20425;-51
2022/08/28 06:38:21;;;;;;;11.50;9.13;;;17.30;99.90;;;;;;5029410;28;20762;-51
2022/08/28 06:40:53;;;;;;;11.70;9.33;;;17.30;99.90;;;;;;5031871;28;20476;-52
2022/08/28 06:43:21;;;;;;;13.83;8.53;;;17.30;99.90;;;;;;5041544;28;20418;-49
2022/08/28 06:45:49;;;;;;;12.53;8.70;;;17.30;99.90;;;;;;5032723;28;20422;-50
2022/08/28 06:48:18;;;;;;;11.60;8.20;;;17.40;99.90;;;;;;5050413;28;20474;-52
2022/08/28 06:50:48;;;;;;;10.70;7.27;;;17.40;99.90;;;;;;5050183;28;20413;-48
2022/08/28 06:53:15;;;;;;;9.10;7.10;;;17.40;99.90;;;;;;5020258;28;20424;-49
2022/08/28 06:55:41;;;;;;;10.07;6.80;;;17.50;99.90;;;;;;5049166;28;20432;-53
2022/08/28 06:58:08;;;;;;;9.67;6.63;;;17.60;99.90;;;;;;5037135;28;20817;-51
2022/08/28 07:00:35;;;;;;;9.30;6.93;;;17.60;99.90;;;;;;5046051;28;20540;-50
2022/08/28 07:03:02;;;;;;;11.07;7.30;;;17.70;99.90;;;;;;5030100;28;20422;-52
2022/08/28 07:05:27;;;;;;;14.33;7.37;;;17.80;99.90;;;;;;5030984;28;20410;-46
2022/08/28 07:07:54;;;;;;;11.17;7.00;;;17.90;99.90;;;;;;5033766;28;20460;-46
2022/08/28 07:10:19;;;;;;;8.50;6.30;;;18.00;99.90;;;;;;5057912;28;20193;-47
2022/08/28 07:12:45;;;;;;;9.27;6.53;;;18.10;99.90;;;;;;5050299;28;20500;-51
2022/08/28 07:15:10;;;;;;;8.77;6.10;;;18.20;99.90;;;;;;5050178;28;20182;-52
2022/08/28 07:17:37;;;;;;;11.10;7.40;;;18.20;99.90;;;;;;5032772;28;20183;-46
2022/08/28 07:20:04;;;;;;;14.17;6.97;;;18.20;99.90;;;;;;5029893;28;20202;-51
2022/08/28 07:22:30;;;;;;;9.20;5.77;;;18.10;99.90;;;;;;5045037;28;20948;-51
2022/08/28 07:24:56;;;;;;;9.83;6.07;;;18.10;99.90;;;;;;5049876;28;20424;-47
2022/08/28 07:27:23;;;;;;;8.37;5.70;;;18.10;99.90;;;;;;5046612;28;20174;-50
2022/08/28 07:29:52;;;;;;;7.57;5.20;;;18.10;99.90;;;;;;5043159;28;20428;-47
2022/08/28 07:32:20;;;;;;;10.70;6.30;;;18.10;99.90;;;;;;5031297;28;20425;-47
2022/08/28 07:34:47;;;;;;;11.77;5.93;;;18.10;99.90;;;;;;5048823;28;20420;-45
2022/08/28 07:37:13;;;;;;;9.23;6.30;;;18.10;99.90;;;;;;5031453;28;20430;-46
2022/08/28 07:39:39;;;;;;;7.53;4.77;;;18.20;99.90;;;;;;5029769;28;20548;-52
2022/08/28 07:42:04;;;;;;;7.87;6.13;;;18.20;99.90;;;;;;5043606;28;20488;-53
2022/08/28 07:44:49;;;;;;;10.63;5.67;;;18.10;99.90;;;;;;5039750;28;20178;-46
2022/08/28 07:47:16;;;;;;;7.40;6.00;;;18.20;99.90;;;;;;5031328;28;20257;-51
2022/08/28 07:49:42;;;;;;;11.83;6.00;;;18.30;99.90;;;;;;5029284;28;21026;-48
2022/08/28 07:52:08;;;;;;;8.77;6.00;;;18.40;99.90;;;;;;5029411;28;20418;-52
2022/08/28 07:54:35;;;;;;;8.30;5.90;;;18.50;99.90;;;;;;5047165;28;21106;-49
2022/08/28 07:57:05;;;;;;;6.00;4.80;;;18.70;99.90;;;;;;5032549;28;20875;-51
2022/08/28 07:59:31;;;;;;;7.00;4.90;;;18.80;99.90;;;;;;5029309;28;20488;-50
2022/08/28 08:01:56;;;;;;;7.87;5.53;;;18.80;99.90;;;;;;5045971;28;20404;-50
2022/08/28 08:04:23;;;;;;;8.03;5.37;;;18.90;99.90;;;;;;5039656;28;20178;-48
2022/08/28 08:06:51;;;;;;;5.53;4.70;;;18.90;99.90;;;;;;5028970;28;20246;-49
2022/08/28 08:09:18;;;;;;;6.70;4.70;;;19.10;99.90;;;;;;5029351;28;20421;-48
2022/08/28 08:11:45;;;;;;;7.20;5.17;;;19.30;99.90;;;;;;5011810;28;20440;-51
2022/08/28 08:14:12;;;;;;;9.30;4.90;;;19.50;99.90;;;;;;5035902;28;20829;-50
2022/08/28 08:16:40;;;;;;;7.70;4.90;;;19.60;99.90;;;;;;5036336;28;20436;-46
2022/08/28 08:19:12;;;;;;;7.60;5.23;;;19.80;99.90;;;;;;5029853;28;20462;-51
2022/08/28 08:21:40;;;;;;;10.43;4.70;;;19.90;99.90;;;;;;5029420;28;21068;-51
2022/08/28 08:24:06;;;;;;;8.97;4.57;;;19.90;99.90;;;;;;5044006;28;20415;-46
2022/08/28 08:26:32;;;;;;;9.60;5.00;;;20.20;99.90;;;;;;5038913;28;20436;-50
2022/08/28 08:28:58;;;;;;;8.40;5.20;;;20.40;99.90;;;;;;5033227;28;20433;-48
2022/08/28 08:31:31;;;;;;;6.63;4.70;;;20.60;99.90;;;;;;5041031;28;20922;-51
2022/08/28 08:34:00;;;;;;;9.53;4.87;;;20.50;99.90;;;;;;5050950;28;21134;-50
2022/08/28 08:36:26;;;;;;;10.03;4.90;;;20.50;99.90;;;;;;5053035;28;20420;-51
2022/08/28 08:38:53;;;;;;;11.60;4.97;;;20.60;99.90;;;;;;5052885;28;20552;-51
2022/08/28 08:41:32;;;;;;;7.87;5.10;;;20.60;99.90;;;;;;5051821;28;20410;-51
2022/08/28 08:44:20;;;;;;;7.27;4.77;;;20.70;99.90;;;;;;5045641;28;20420;-49
2022/08/28 08:47:21;;;;;;;11.00;5.10;;;20.70;99.90;;;;;;5032956;28;20417;-52
2022/08/28 08:49:57;;;;;;;11.47;5.50;;;20.80;99.90;;;;;;5001733;28;20486;-53
2022/08/28 08:52:33;;;;;;;7.40;4.63;;;21.20;99.90;;;;;;5043624;28;20676;-53
2022/08/28 08:54:58;;;;;;;6.90;4.67;;;21.40;99.90;;;;;;5049166;28;20972;-51
2022/08/28 08:57:24;;;;;;;7.83;4.87;;;21.70;99.90;;;;;;5032746;28;20432;-47
2022/08/28 08:59:50;;;;;;;8.47;4.60;;;21.80;99.90;;;;;;5046629;28;21070;-49
2022/08/28 09:02:21;;;;;;;10.43;5.23;;;22.00;99.90;;;;;;5041784;28;20257;-47
2022/08/28 09:05:05;;;;;;;9.20;5.10;;;22.00;99.90;;;;;;5037471;28;20179;-50
2022/08/28 09:07:47;;;;;;;7.27;4.80;;;22.40;99.90;;;;;;5032518;28;20510;-47
2022/08/28 09:10:14;;;;;;;8.00;4.70;;;22.50;99.90;;;;;;5037763;28;20478;-50
2022/08/28 09:13:16;;;;;;;7.00;4.90;;;22.70;99.90;;;;;;5041062;28;20433;-48
2022/08/28 09:15:45;;;;;;;8.40;4.97;;;22.90;99.90;;;;;;5040829;28;20438;-50
2022/08/28 09:18:22;;;;;;;8.00;5.50;;;23.20;99.90;;;;;;5049733;28;20955;-48
2022/08/28 09:20:52;;;;;;;5.73;5.00;;;23.00;99.90;;;;;;5040518;28;20952;-47
2022/08/28 09:23:20;;;;;;;9.40;5.30;;;22.90;99.90;;;;;;5040967;28;20848;-49
2022/08/28 09:25:56;;;;;;;8.37;5.30;;;22.90;99.90;;;;;;5043891;28;20428;-47
2022/08/28 09:28:37;;;;;;;6.30;4.70;;;22.70;99.90;;;;;;5032068;28;20422;-50
2022/08/28 09:31:03;;;;;;;7.77;5.70;;;22.70;99.90;;;;;;5043715;28;20425;-48
2022/08/28 09:33:32;;;;;;;5.93;5.20;;;22.80;99.90;;;;;;5050841;28;20466;-50
2022/08/28 09:36:28;;;;;;;7.60;5.50;;;22.90;99.90;;;;;;5033898;28;20182;-47
2022/08/28 09:39:06;;;;;;;7.47;5.23;;;22.90;99.90;;;;;;5051763;28;21130;-46
2022/08/28 09:44:19;;;;;;;8.97;6.47;;;22.90;99.90;;;;;;5051193;28;20495;-53
2022/08/28 09:46:48;;;;;;;9.30;5.80;;;23.00;99.90;;;;;;5044888;28;20587;-54
2022/08/28 09:49:20;;;;;;;8.10;6.00;;;23.10;99.90;;;;;;5051532;28;20660;-51
2022/08/28 09:51:46;;;;;;;9.60;7.07;;;23.30;99.90;;;;;;5050676;28;20413;-46
2022/08/28 09:54:35;;;;;;;10.50;6.97;;;23.30;99.90;;;;;;5050445;28;20417;-50
2022/08/28 09:57:02;;;;;;;10.97;6.67;;;23.30;99.90;;;;;;5039609;28;20192;-47
2022/08/28 09:59:28;;;;;;;6.93;5.80;;;23.50;99.90;;;;;;5045345;28;20501;-52
2022/08/28 10:02:11;;;;;;;10.23;7.20;;;23.70;99.90;;;;;;5037700;28;20403;-51
2022/08/28 10:04:53;;;;;;;6.73;6.03;;;24.20;99.90;;;;;;5049632;28;20466;-53
2022/08/28 10:07:40;;;;;;;7.23;6.07;;;24.70;99.90;;;;;;5047816;28;20511;-50
2022/08/28 10:10:25;;;;;;;7.83;6.30;;;25.10;99.90;;;;;;5043812;28;21128;-48
2022/08/28 10:12:59;;;;;;;6.80;5.80;;;25.60;95.70;;;;;;5050522;28;20429;-51
2022/08/28 10:15:52;;;;;;;8.13;6.83;;;25.70;99.90;;;;;;5050650;28;20415;-49
2022/08/28 10:18:55;;;;;;;8.00;6.40;;;26.10;99.90;;;;;;5041462;28;20431;-46
2022/08/28 10:21:23;;;;;;;7.53;6.30;;;26.10;99.90;;;;;;5042432;28;20443;-50
2022/08/28 10:24:13;;;;;;;8.77;6.00;;;26.40;45.60;;;;;;5030958;28;20413;-49
2022/08/28 10:26:57;;;;;;;6.80;6.20;;;26.70;96.10;;;;;;5042304;28;21035;-50
2022/08/28 10:30:09;;;;;;;9.33;6.10;;;27.00;1.00;;;;;;5014776;28;20437;-46
2022/08/28 10:32:59;;;;;;;8.77;6.77;;;26.80;1.00;;;;;;5040538;28;20472;-50
2022/08/28 10:35:51;;;;;;;9.77;5.80;;;26.80;1.00;;;;;;5030633;28;20430;-50
2022/08/28 10:38:23;;;;;;;7.47;5.20;;;26.60;1.00;;;;;;5038330;28;20459;-48
2022/08/28 10:41:00;;;;;;;7.07;5.83;;;26.90;1.00;;;;;;5050433;28;20535;-51
2022/08/28 10:43:48;;;;;;;6.27;5.30;;;27.30;1.00;;;;;;5050071;28;20531;-46
2022/08/28 10:46:35;;;;;;;6.20;5.17;;;27.40;1.00;;;;;;5033546;28;20572;-49
2022/08/28 10:49:09;;;;;;;8.53;5.70;;;27.20;1.00;;;;;;5031022;28;20512;-53
2022/08/28 10:51:44;;;;;;;7.13;5.70;;;27.20;1.00;;;;;;5050112;28;20879;-51
2022/08/28 10:54:37;;;;;;;8.63;6.43;;;27.00;1.00;;;;;;5050370;28;20420;-52
2022/08/28 10:57:30;;;;;;;8.13;5.57;;;27.10;1.00;;;;;;5038990;28;20444;-49
2022/08/28 10:59:59;;;;;;;8.17;5.60;;;26.90;1.00;;;;;;5049499;28;20463;-53
2022/08/28 11:02:25;;;;;;;6.30;5.70;;;27.20;1.00;;;;;;5049877;28;20421;-50
2022/08/28 11:04:53;;;;;;;6.00;5.43;;;27.70;1.00;;;;;;5032828;28;20794;-52
2022/08/28 11:07:48;;;;;;;6.60;6.00;;;27.90;1.00;;;;;;5030158;28;20491;-50
2022/08/28 11:10:20;;;;;;;5.97;5.37;;;28.10;99.90;;;;;;5043389;28;20431;-47
2022/08/28 11:12:50;;;;;;;6.60;5.90;;;28.80;99.90;;;;;;5030151;28;20432;-48
2022/08/28 11:15:27;;;;;;;7.00;5.30;;;28.70;99.90;;;;;;5040596;28;20527;-51
2022/08/28 11:18:15;;;;;;;6.87;6.10;;;28.30;99.90;;;;;;5036202;28;20919;-50
2022/08/28 11:20:53;;;;;;;6.00;5.40;;;27.90;99.90;;;;;;5030051;28;20966;-52
2022/08/28 11:23:46;;;;;;;6.57;5.90;;;28.00;99.90;;;;;;5029852;28;20418;-47
2022/08/28 11:26:21;;;;;;;6.33;5.70;;;28.20;99.90;;;;;;5033606;28;20425;-47
2022/08/28 11:28:47;;;;;;;8.27;5.90;;;28.90;99.90;;;;;;5049593;28;20420;-48
2022/08/28 11:31:12;;;;;;;6.40;5.90;;;29.10;99.90;;;;;;5046438;28;20955;-51
2022/08/28 11:33:39;;;;;;;7.10;5.90;;;29.80;99.90;;;;;;5030835;28;20187;-53
2022/08/28 11:36:28;;;;;;;8.43;6.30;;;30.20;99.90;;;;;;5029801;28;20178;-50
2022/08/28 11:38:54;;;;;;;6.43;5.63;;;30.60;99.90;;;;;;5029256;28;20479;-48
2022/08/28 11:41:38;;;;;;;7.10;6.00;;;30.50;99.90;;;;;;5029687;28;20418;-47
2022/08/28 11:44:09;;;;;;;6.50;5.77;;;30.40;99.90;;;;;;5043128;28;20170;-51
2022/08/28 11:46:41;;;;;;;7.90;6.13;;;30.40;99.90;;;;;;5049350;28;20542;-50
2022/08/28 11:49:25;;;;;;;6.40;5.83;;;30.10;99.90;;;;;;5036772;28;21002;-53
2022/08/28 11:52:21;;;;;;;7.67;5.67;;;29.80;99.90;;;;;;5037401;28;20424;-46
2022/08/28 11:55:05;;;;;;;6.17;5.63;;;29.80;99.90;;;;;;5043340;28;20421;-50
2022/08/28 11:57:39;;;;;;;8.40;6.40;;;30.20;99.90;;;;;;5011781;28;20429;-51
2022/08/28 12:00:22;;;;;;;7.10;5.67;;;30.20;99.90;;;;;;5030111;28;20461;-51
2022/08/28 12:02:53;;;;;;;6.40;5.37;;;30.50;99.90;;;;;;5034160;28;20445;-49
2022/08/28 12:05:30;;;;;;;6.77;6.17;;;30.30;99.90;;;;;;5036715;28;20409;-52
2022/08/28 12:08:01;;;;;;;7.90;6.50;;;29.80;99.90;;;;;;5034203;28;20450;-49
2022/08/28 12:10:26;;;;;;;6.13;5.53;;;29.90;99.90;;;;;;5037744;28;20416;-47
2022/08/28 12:12:53;;;;;;;7.37;6.10;;;29.90;99.90;;;;;;5048517;28;20499;-50
2022/08/28 12:15:31;;;;;;;6.60;5.97;;;29.90;99.90;;;;;;5035734;28;20177;-48
2022/08/28 12:18:11;;;;;;;7.17;6.50;;;29.60;99.90;;;;;;5035756;28;21128;-51
2022/08/28 12:20:58;;;;;;;7.30;5.80;;;29.90;99.90;;;;;;5036692;28;21072;-51
2022/08/28 12:23:39;;;;;;;6.20;5.60;;;30.20;99.90;;;;;;5048970;28;20458;-50
2022/08/28 12:26:25;;;;;;;6.23;5.30;;;30.50;99.90;;;;;;5044247;28;20439;-48
2022/08/28 12:29:23;;;;;;;6.67;5.97;;;30.60;99.90;;;;;;5048902;28;20527;-51
2022/08/28 12:32:19;;;;;;;7.30;6.10;;;31.50;99.90;;;;;;5024113;28;20950;-50
2022/08/28 12:34:57;;;;;;;6.17;5.37;;;31.60;99.90;;;;;;5043932;28;21177;-50
2022/08/28 12:37:37;;;;;;;5.80;5.40;;;31.30;99.90;;;;;;5029096;28;20899;-52
2022/08/28 12:40:32;;;;;;;5.70;5.30;;;30.90;99.90;;;;;;5029025;28;20491;-51
2022/08/28 12:43:01;;;;;;;6.23;5.40;;;30.70;99.90;;;;;;5028509;28;20439;-51
2022/08/28 12:45:47;;;;;;;6.97;4.97;;;30.90;99.90;;;;;;5028982;28;20418;-49
2022/08/28 12:48:25;;;;;;;6.60;6.00;;;30.50;99.90;;;;;;5036406;28;20460;-56
2022/08/28 12:51:01;;;;;;;7.60;5.93;;;30.00;99.90;;;;;;5042194;28;20486;-58
2022/08/28 12:53:35;;;;;;;6.03;5.43;;;29.90;99.90;;;;;;5044240;28;20443;-57
2022/08/28 12:56:00;;;;;;;7.57;5.77;;;29.60;99.90;;;;;;5042140;28;21000;-57
2022/08/28 12:58:34;;;;;;;6.57;5.97;;;29.70;99.90;;;;;;5028562;28;20479;-57